sensor_id;sensor_type;location;lat;lon;timestamp;temperature;humidity
75824;DHT22;64457;51.976;9.834;2022-11-18T00:01:06;9.80;99.90
75824;DHT22;64457;51.976;9.834;2022-11-18T00:03:34;9.90;99.90
75824;DHT22;64457;51.976;9.834;2022-11-18T00:06:03;9.90;99.90
75824;DHT22;64457;51.976;9.834;2022-11-18T00:08:32;9.90;99.90
75824;DHT22;64457;51.976;9.834;2022-11-18T00:11:06;9.60;99.90
75824;DHT22;64457;51.976;9.834;2022-11-18T00:13:36;9.60;99.90
75824;DHT22;64457;51.976;9.834;2022-11-18T00:16:22;9.40;99.90
75824;DHT22;64457;51.976;9.834;2022-11-18T00:18:50;9.30;99.90
75824;DHT22;64457;51.976;9.834;2022-11-18T00:21:18;9.20;99.90
75824;DHT22;64457;51.976;9.834;2022-11-18T00:23:47;9.20;99.90
75824;DHT22;64457;51.976;9.834;2022-11-18T00:26:17;9.30;99.90
75824;DHT22;64457;51.976;9.834;2022-11-18T00:28:44;9.00;99.90
75824;DHT22;64457;51.976;9.834;2022-11-18T00:31:13;8.90;99.90
75824;DHT22;64457;51.976;9.834;2022-11-18T00:33:41;9.10;99.90
75824;DHT22;64457;51.976;9.834;2022-11-18T00:36:10;9.40;99.90
75824;DHT22;64457;51.976;9.834;2022-11-18T00:38:39;9.30;99.90
75824;DHT22;64457;51.976;9.834;2022-11-18T00:41:08;9.00;99.90
75824;DHT22;64457;51.976;9.834;2022-11-18T00:43:38;9.20;99.90
75824;DHT22;64457;51.976;9.834;2022-11-18T00:46:07;9.50;99.90
75824;DHT22;64457;51.976;9.834;2022-11-18T00:48:36;9.70;99.90
75824;DHT22;64457;51.976;9.834;2022-11-18T00:51:17;9.80;99.90
75824;DHT22;64457;51.976;9.834;2022-11-18T00:53:46;9.80;99.90
75824;DHT22;64457;51.976;9.834;2022-11-18T00:56:13;9.80;99.90
75824;DHT22;64457;51.976;9.834;2022-11-18T00:58:43;9.70;99.90
75824;DHT22;64457;51.976;9.834;2022-11-18T01:01:11;9.80;99.90
75824;DHT22;64457;51.976;9.834;2022-11-18T01:03:38;9.80;99.90
75824;DHT22;64457;51.976;9.834;2022-11-18T01:06:06;9.70;99.90
75824;DHT22;64457;51.976;9.834;2022-11-18T01:08:34;9.70;99.90
75824;DHT22;64457;51.976;9.834;2022-11-18T01:11:02;9.70;99.90
75824;DHT22;64457;51.976;9.834;2022-11-18T01:13:48;9.80;99.90
75824;DHT22;64457;51.976;9.834;2022-11-18T01:16:18;9.80;99.90
75824;DHT22;64457;51.976;9.834;2022-11-18T01:18:46;9.60;99.90
75824;DHT22;64457;51.976;9.834;2022-11-18T01:21:15;9.60;99.90
75824;DHT22;64457;51.976;9.834;2022-11-18T01:23:43;9.50;99.90
75824;DHT22;64457;51.976;9.834;2022-11-18T01:26:13;9.60;99.90
75824;DHT22;64457;51.976;9.834;2022-11-18T01:28:42;9.50;99.90
75824;DHT22;64457;51.976;9.834;2022-11-18T01:31:13;9.30;99.90
75824;DHT22;64457;51.976;9.834;2022-11-18T01:33:42;9.00;99.90
75824;DHT22;64457;51.976;9.834;2022-11-18T01:36:15;9.00;99.90
75824;DHT22;64457;51.976;9.834;2022-11-18T01:38:44;9.30;99.90
75824;DHT22;64457;51.976;9.834;2022-11-18T01:41:13;9.10;99.90
75824;DHT22;64457;51.976;9.834;2022-11-18T01:43:52;9.00;99.90
75824;DHT22;64457;51.976;9.834;2022-11-18T01:46:24;9.00;99.90
75824;DHT22;64457;51.976;9.834;2022-11-18T01:48:56;9.10;99.90
75824;DHT22;64457;51.976;9.834;2022-11-18T01:51:29;9.10;99.90
75824;DHT22;64457;51.976;9.834;2022-11-18T01:54:02;9.00;99.90
75824;DHT22;64457;51.976;9.834;2022-11-18T01:56:38;9.20;99.90
75824;DHT22;64457;51.976;9.834;2022-11-18T01:59:10;9.10;99.90
75824;DHT22;64457;51.976;9.834;2022-11-18T02:01:41;9.10;99.90
75824;DHT22;64457;51.976;9.834;2022-11-18T02:04:10;9.20;99.90
75824;DHT22;64457;51.976;9.834;2022-11-18T02:06:39;9.30;99.90
75824;DHT22;64457;51.976;9.834;2022-11-18T02:09:07;9.20;99.90
75824;DHT22;64457;51.976;9.834;2022-11-18T02:11:35;9.40;99.90
75824;DHT22;64457;51.976;9.834;2022-11-18T02:14:21;9.30;99.90
75824;DHT22;64457;51.976;9.834;2022-11-18T02:17:01;9.10;99.90
75824;DHT22;64457;51.976;9.834;2022-11-18T02:19:54;9.20;99.90
75824;DHT22;64457;51.976;9.834;2022-11-18T02:25:55;9.30;99.90
75824;DHT22;64457;51.976;9.834;2022-11-18T02:28:49;9.40;99.90
75824;DHT22;64457;51.976;9.834;2022-11-18T02:31:29;9.20;99.90
75824;DHT22;64457;51.976;9.834;2022-11-18T02:34:05;9.20;99.90
75824;DHT22;64457;51.976;9.834;2022-11-18T02:36:40;9.20;99.90
75824;DHT22;64457;51.976;9.834;2022-11-18T02:39:16;8.90;99.90
75824;DHT22;64457;51.976;9.834;2022-11-18T02:41:48;9.00;99.90
75824;DHT22;64457;51.976;9.834;2022-11-18T02:44:19;9.20;99.90
75824;DHT22;64457;51.976;9.834;2022-11-18T02:46:52;9.30;99.90
75824;DHT22;64457;51.976;9.834;2022-11-18T02:49:26;9.10;99.90
75824;DHT22;64457;51.976;9.834;2022-11-18T02:51:57;8.90;99.90
75824;DHT22;64457;51.976;9.834;2022-11-18T02:54:28;8.90;99.90
75824;DHT22;64457;51.976;9.834;2022-11-18T02:56:56;8.60;99.90
75824;DHT22;64457;51.976;9.834;2022-11-18T02:59:27;8.60;99.90
75824;DHT22;64457;51.976;9.834;2022-11-18T03:01:55;8.80;99.90
75824;DHT22;64457;51.976;9.834;2022-11-18T03:04:24;8.80;99.90
75824;DHT22;64457;51.976;9.834;2022-11-18T03:06:57;8.90;99.90
75824;DHT22;64457;51.976;9.834;2022-11-18T03:09:33;8.30;99.90
75824;DHT22;64457;51.976;9.834;2022-11-18T03:12:09;8.40;99.90
75824;DHT22;64457;51.976;9.834;2022-11-18T03:14:48;8.80;99.90
75824;DHT22;64457;51.976;9.834;2022-11-18T03:17:24;9.10;99.90
75824;DHT22;64457;51.976;9.834;2022-11-18T03:20:08;8.50;99.90
75824;DHT22;64457;51.976;9.834;2022-11-18T03:22:41;8.00;99.90
75824;DHT22;64457;51.976;9.834;2022-11-18T03:25:17;7.70;99.90
75824;DHT22;64457;51.976;9.834;2022-11-18T03:27:51;7.80;99.90
75824;DHT22;64457;51.976;9.834;2022-11-18T03:30:23;8.10;99.90
75824;DHT22;64457;51.976;9.834;2022-11-18T03:32:56;8.10;99.90
75824;DHT22;64457;51.976;9.834;2022-11-18T03:35:29;8.30;99.90
75824;DHT22;64457;51.976;9.834;2022-11-18T03:38:03;8.20;99.90
75824;DHT22;64457;51.976;9.834;2022-11-18T03:40:37;8.20;99.90
75824;DHT22;64457;51.976;9.834;2022-11-18T03:43:09;8.10;99.90
75824;DHT22;64457;51.976;9.834;2022-11-18T03:45:53;8.40;99.90
75824;DHT22;64457;51.976;9.834;2022-11-18T03:48:25;8.40;99.90
75824;DHT22;64457;51.976;9.834;2022-11-18T03:50:59;7.90;99.90
75824;DHT22;64457;51.976;9.834;2022-11-18T03:53:31;7.80;99.90
75824;DHT22;64457;51.976;9.834;2022-11-18T03:56:05;8.00;99.90
75824;DHT22;64457;51.976;9.834;2022-11-18T03:58:39;8.00;99.90
75824;DHT22;64457;51.976;9.834;2022-11-18T04:01:14;8.00;99.90
75824;DHT22;64457;51.976;9.834;2022-11-18T04:03:44;8.30;99.90
75824;DHT22;64457;51.976;9.834;2022-11-18T04:06:17;8.00;99.90
75824;DHT22;64457;51.976;9.834;2022-11-18T04:08:52;8.30;99.90
75824;DHT22;64457;51.976;9.834;2022-11-18T04:11:24;8.10;99.90
75824;DHT22;64457;51.976;9.834;2022-11-18T04:14:12;7.80;99.90
75824;DHT22;64457;51.976;9.834;2022-11-18T04:16:43;8.20;99.90
75824;DHT22;64457;51.976;9.834;2022-11-18T04:19:11;8.20;99.90
75824;DHT22;64457;51.976;9.834;2022-11-18T04:21:38;8.20;99.90
75824;DHT22;64457;51.976;9.834;2022-11-18T04:24:07;8.10;99.90
75824;DHT22;64457;51.976;9.834;2022-11-18T04:26:35;8.10;99.90
75824;DHT22;64457;51.976;9.834;2022-11-18T04:29:02;8.00;99.90
75824;DHT22;64457;51.976;9.834;2022-11-18T04:31:30;8.00;99.90
75824;DHT22;64457;51.976;9.834;2022-11-18T04:34:00;8.10;99.90
75824;DHT22;64457;51.976;9.834;2022-11-18T04:36:28;8.20;99.90
75824;DHT22;64457;51.976;9.834;2022-11-18T04:38:55;8.30;99.90
75824;DHT22;64457;51.976;9.834;2022-11-18T04:41:23;8.40;99.90
75824;DHT22;64457;51.976;9.834;2022-11-18T04:44:11;8.40;99.90
75824;DHT22;64457;51.976;9.834;2022-11-18T04:46:40;8.50;99.90
75824;DHT22;64457;51.976;9.834;2022-11-18T04:49:11;8.40;99.90
75824;DHT22;64457;51.976;9.834;2022-11-18T04:51:41;8.40;99.90
75824;DHT22;64457;51.976;9.834;2022-11-18T04:54:10;7.80;99.90
75824;DHT22;64457;51.976;9.834;2022-11-18T04:56:39;7.50;99.90
75824;DHT22;64457;51.976;9.834;2022-11-18T04:59:08;7.70;99.90
75824;DHT22;64457;51.976;9.834;2022-11-18T05:01:36;7.90;99.90
75824;DHT22;64457;51.976;9.834;2022-11-18T05:04:05;8.20;99.90
75824;DHT22;64457;51.976;9.834;2022-11-18T05:06:35;7.60;99.90
75824;DHT22;64457;51.976;9.834;2022-11-18T05:09:02;7.60;99.90
75824;DHT22;64457;51.976;9.834;2022-11-18T05:11:31;7.70;99.90
75824;DHT22;64457;51.976;9.834;2022-11-18T05:14:16;7.80;99.90
75824;DHT22;64457;51.976;9.834;2022-11-18T05:16:45;7.90;99.90
75824;DHT22;64457;51.976;9.834;2022-11-18T05:19:12;7.80;99.90
75824;DHT22;64457;51.976;9.834;2022-11-18T05:21:41;7.50;99.90
75824;DHT22;64457;51.976;9.834;2022-11-18T05:24:09;6.60;99.90
75824;DHT22;64457;51.976;9.834;2022-11-18T05:26:37;6.40;99.90
75824;DHT22;64457;51.976;9.834;2022-11-18T05:29:04;6.40;99.90
75824;DHT22;64457;51.976;9.834;2022-11-18T05:31:32;7.00;99.90
75824;DHT22;64457;51.976;9.834;2022-11-18T05:34:00;7.40;99.90
75824;DHT22;64457;51.976;9.834;2022-11-18T05:36:27;7.20;99.90
75824;DHT22;64457;51.976;9.834;2022-11-18T05:38:59;7.10;99.90
75824;DHT22;64457;51.976;9.834;2022-11-18T05:41:27;6.80;99.90
75824;DHT22;64457;51.976;9.834;2022-11-18T05:44:14;7.30;99.90
75824;DHT22;64457;51.976;9.834;2022-11-18T05:46:42;7.20;99.90
75824;DHT22;64457;51.976;9.834;2022-11-18T05:49:10;6.50;99.90
75824;DHT22;64457;51.976;9.834;2022-11-18T05:51:38;6.40;99.90
75824;DHT22;64457;51.976;9.834;2022-11-18T05:54:09;6.60;99.90
75824;DHT22;64457;51.976;9.834;2022-11-18T05:56:41;7.00;99.90
75824;DHT22;64457;51.976;9.834;2022-11-18T05:59:10;7.60;99.90
75824;DHT22;64457;51.976;9.834;2022-11-18T06:01:42;7.10;99.90
75824;DHT22;64457;51.976;9.834;2022-11-18T06:04:15;7.20;99.90
75824;DHT22;64457;51.976;9.834;2022-11-18T06:06:45;7.10;99.90
75824;DHT22;64457;51.976;9.834;2022-11-18T06:09:18;7.00;99.90
75824;DHT22;64457;51.976;9.834;2022-11-18T06:11:51;7.00;99.90
75824;DHT22;64457;51.976;9.834;2022-11-18T06:14:24;7.30;99.90
75824;DHT22;64457;51.976;9.834;2022-11-18T06:16:56;7.50;99.90
75824;DHT22;64457;51.976;9.834;2022-11-18T06:19:26;7.50;99.90
75824;DHT22;64457;51.976;9.834;2022-11-18T06:21:54;7.50;99.90
75824;DHT22;64457;51.976;9.834;2022-11-18T06:24:23;7.40;99.90
75824;DHT22;64457;51.976;9.834;2022-11-18T06:26:51;6.90;99.90
75824;DHT22;64457;51.976;9.834;2022-11-18T06:29:19;7.00;99.90
75824;DHT22;64457;51.976;9.834;2022-11-18T06:31:47;7.20;99.90
75824;DHT22;64457;51.976;9.834;2022-11-18T06:34:15;6.90;99.90
75824;DHT22;64457;51.976;9.834;2022-11-18T06:36:43;7.10;99.90
75824;DHT22;64457;51.976;9.834;2022-11-18T06:39:11;7.00;99.90
75824;DHT22;64457;51.976;9.834;2022-11-18T06:41:40;7.10;99.90
75824;DHT22;64457;51.976;9.834;2022-11-18T06:44:10;7.10;99.90
75824;DHT22;64457;51.976;9.834;2022-11-18T06:46:36;7.20;99.90
75824;DHT22;64457;51.976;9.834;2022-11-18T06:49:22;7.20;99.90
75824;DHT22;64457;51.976;9.834;2022-11-18T06:51:51;7.30;99.90
75824;DHT22;64457;51.976;9.834;2022-11-18T06:54:18;7.40;99.90
75824;DHT22;64457;51.976;9.834;2022-11-18T06:56:48;7.50;99.90
75824;DHT22;64457;51.976;9.834;2022-11-18T06:59:16;7.30;99.90
75824;DHT22;64457;51.976;9.834;2022-11-18T07:01:48;7.20;99.90
75824;DHT22;64457;51.976;9.834;2022-11-18T07:04:17;7.10;99.90
75824;DHT22;64457;51.976;9.834;2022-11-18T07:06:45;6.70;99.90
75824;DHT22;64457;51.976;9.834;2022-11-18T07:09:14;6.40;99.90
75824;DHT22;64457;51.976;9.834;2022-11-18T07:11:42;6.70;99.90
75824;DHT22;64457;51.976;9.834;2022-11-18T07:14:12;6.90;99.90
75824;DHT22;64457;51.976;9.834;2022-11-18T07:16:39;6.80;99.90
75824;DHT22;64457;51.976;9.834;2022-11-18T07:19:11;6.90;99.90
75824;DHT22;64457;51.976;9.834;2022-11-18T07:21:39;7.00;99.90
75824;DHT22;64457;51.976;9.834;2022-11-18T07:24:10;7.10;99.90
75824;DHT22;64457;51.976;9.834;2022-11-18T07:26:38;7.10;99.90
75824;DHT22;64457;51.976;9.834;2022-11-18T07:29:06;7.30;99.90
75824;DHT22;64457;51.976;9.834;2022-11-18T07:31:36;7.40;99.90
75824;DHT22;64457;51.976;9.834;2022-11-18T07:34:05;7.00;99.90
75824;DHT22;64457;51.976;9.834;2022-11-18T07:36:32;6.90;99.90
75824;DHT22;64457;51.976;9.834;2022-11-18T07:39:01;7.20;99.90
75824;DHT22;64457;51.976;9.834;2022-11-18T07:41:29;7.30;99.90
75824;DHT22;64457;51.976;9.834;2022-11-18T07:43:58;7.20;99.90
75824;DHT22;64457;51.976;9.834;2022-11-18T07:46:28;7.20;99.90
75824;DHT22;64457;51.976;9.834;2022-11-18T07:49:00;7.30;99.90
75824;DHT22;64457;51.976;9.834;2022-11-18T07:51:31;7.40;99.90
75824;DHT22;64457;51.976;9.834;2022-11-18T07:54:00;7.10;99.90
75824;DHT22;64457;51.976;9.834;2022-11-18T07:56:28;7.30;99.90
75824;DHT22;64457;51.976;9.834;2022-11-18T07:58:55;7.50;99.90
75824;DHT22;64457;51.976;9.834;2022-11-18T08:01:24;7.40;99.90
75824;DHT22;64457;51.976;9.834;2022-11-18T08:03:53;7.30;99.90
75824;DHT22;64457;51.976;9.834;2022-11-18T08:06:23;7.30;99.90
75824;DHT22;64457;51.976;9.834;2022-11-18T08:08:51;7.10;99.90
75824;DHT22;64457;51.976;9.834;2022-11-18T08:11:19;6.40;99.90
75824;DHT22;64457;51.976;9.834;2022-11-18T08:13:47;6.40;99.90
75824;DHT22;64457;51.976;9.834;2022-11-18T08:16:16;6.70;99.90
75824;DHT22;64457;51.976;9.834;2022-11-18T08:18:47;6.50;99.90
75824;DHT22;64457;51.976;9.834;2022-11-18T08:21:15;6.80;99.90
75824;DHT22;64457;51.976;9.834;2022-11-18T08:23:50;6.80;99.90
75824;DHT22;64457;51.976;9.834;2022-11-18T08:26:18;6.80;99.90
75824;DHT22;64457;51.976;9.834;2022-11-18T08:28:46;6.90;99.90
75824;DHT22;64457;51.976;9.834;2022-11-18T08:31:16;7.00;99.90
75824;DHT22;64457;51.976;9.834;2022-11-18T08:33:46;6.90;99.90
75824;DHT22;64457;51.976;9.834;2022-11-18T08:36:16;6.90;99.90
75824;DHT22;64457;51.976;9.834;2022-11-18T08:38:46;6.90;99.90
75824;DHT22;64457;51.976;9.834;2022-11-18T08:41:18;6.90;99.90
75824;DHT22;64457;51.976;9.834;2022-11-18T08:43:47;6.90;99.90
75824;DHT22;64457;51.976;9.834;2022-11-18T08:46:15;6.90;99.90
75824;DHT22;64457;51.976;9.834;2022-11-18T08:48:43;6.90;99.90
75824;DHT22;64457;51.976;9.834;2022-11-18T08:51:10;7.20;99.90
75824;DHT22;64457;51.976;9.834;2022-11-18T08:53:40;6.70;99.90
75824;DHT22;64457;51.976;9.834;2022-11-18T08:56:16;6.80;99.90
75824;DHT22;64457;51.976;9.834;2022-11-18T08:58:45;7.10;99.90
75824;DHT22;64457;51.976;9.834;2022-11-18T09:01:13;6.60;99.90
75824;DHT22;64457;51.976;9.834;2022-11-18T09:03:41;6.60;99.90
75824;DHT22;64457;51.976;9.834;2022-11-18T09:06:10;6.60;99.90
75824;DHT22;64457;51.976;9.834;2022-11-18T09:08:41;6.70;99.90
75824;DHT22;64457;51.976;9.834;2022-11-18T09:11:11;6.80;99.90
75824;DHT22;64457;51.976;9.834;2022-11-18T09:13:42;7.00;99.90
75824;DHT22;64457;51.976;9.834;2022-11-18T09:16:09;6.10;99.90
75824;DHT22;64457;51.976;9.834;2022-11-18T09:18:37;6.20;99.90
75824;DHT22;64457;51.976;9.834;2022-11-18T09:21:06;6.20;99.90
75824;DHT22;64457;51.976;9.834;2022-11-18T09:23:36;6.20;99.90
75824;DHT22;64457;51.976;9.834;2022-11-18T09:26:06;6.00;99.90
75824;DHT22;64457;51.976;9.834;2022-11-18T09:28:37;5.90;99.90
75824;DHT22;64457;51.976;9.834;2022-11-18T09:31:07;5.60;99.90
75824;DHT22;64457;51.976;9.834;2022-11-18T09:33:35;5.90;99.90
75824;DHT22;64457;51.976;9.834;2022-11-18T09:36:05;6.10;99.90
75824;DHT22;64457;51.976;9.834;2022-11-18T09:38:38;6.20;99.90
75824;DHT22;64457;51.976;9.834;2022-11-18T09:41:15;6.10;99.90
75824;DHT22;64457;51.976;9.834;2022-11-18T09:43:57;6.00;99.90
75824;DHT22;64457;51.976;9.834;2022-11-18T09:46:37;6.10;99.90
75824;DHT22;64457;51.976;9.834;2022-11-18T09:49:12;6.30;99.90
75824;DHT22;64457;51.976;9.834;2022-11-18T09:51:44;6.60;99.90
75824;DHT22;64457;51.976;9.834;2022-11-18T09:54:18;6.40;99.90
75824;DHT22;64457;51.976;9.834;2022-11-18T09:56:47;6.40;99.90
75824;DHT22;64457;51.976;9.834;2022-11-18T09:59:17;6.40;99.90
75824;DHT22;64457;51.976;9.834;2022-11-18T10:01:49;6.50;99.90
75824;DHT22;64457;51.976;9.834;2022-11-18T10:04:19;6.20;99.90
75824;DHT22;64457;51.976;9.834;2022-11-18T10:06:49;5.80;99.90
75824;DHT22;64457;51.976;9.834;2022-11-18T10:09:29;6.10;99.90
75824;DHT22;64457;51.976;9.834;2022-11-18T10:12:17;6.50;99.90
75824;DHT22;64457;51.976;9.834;2022-11-18T10:14:58;6.60;99.90
75824;DHT22;64457;51.976;9.834;2022-11-18T10:17:43;6.60;99.90
75824;DHT22;64457;51.976;9.834;2022-11-18T10:20:25;6.10;99.90
75824;DHT22;64457;51.976;9.834;2022-11-18T10:23:04;6.00;99.90
75824;DHT22;64457;51.976;9.834;2022-11-18T10:25:36;6.00;99.90
75824;DHT22;64457;51.976;9.834;2022-11-18T10:28:15;6.20;99.90
75824;DHT22;64457;51.976;9.834;2022-11-18T10:30:44;6.40;99.90
75824;DHT22;64457;51.976;9.834;2022-11-18T10:33:24;6.40;99.90
75824;DHT22;64457;51.976;9.834;2022-11-18T10:36:17;6.10;99.90
75824;DHT22;64457;51.976;9.834;2022-11-18T10:38:46;5.80;99.90
75824;DHT22;64457;51.976;9.834;2022-11-18T10:41:16;6.20;99.90
75824;DHT22;64457;51.976;9.834;2022-11-18T10:43:47;6.30;99.90
75824;DHT22;64457;51.976;9.834;2022-11-18T10:46:21;6.50;99.90
75824;DHT22;64457;51.976;9.834;2022-11-18T10:49:24;6.40;99.90
75824;DHT22;64457;51.976;9.834;2022-11-18T10:52:08;6.40;99.90
75824;DHT22;64457;51.976;9.834;2022-11-18T10:54:36;5.80;99.90
75824;DHT22;64457;51.976;9.834;2022-11-18T10:57:07;5.70;99.90
75824;DHT22;64457;51.976;9.834;2022-11-18T10:59:44;5.80;99.90
75824;DHT22;64457;51.976;9.834;2022-11-18T11:02:18;5.90;99.90
75824;DHT22;64457;51.976;9.834;2022-11-18T11:04:48;6.00;99.90
75824;DHT22;64457;51.976;9.834;2022-11-18T11:07:25;5.90;99.90
75824;DHT22;64457;51.976;9.834;2022-11-18T11:10:05;5.60;99.90
75824;DHT22;64457;51.976;9.834;2022-11-18T11:12:51;5.60;99.90
75824;DHT22;64457;51.976;9.834;2022-11-18T11:15:26;5.80;99.90
75824;DHT22;64457;51.976;9.834;2022-11-18T11:18:17;6.00;99.90
75824;DHT22;64457;51.976;9.834;2022-11-18T11:21:10;6.00;99.90
75824;DHT22;64457;51.976;9.834;2022-11-18T11:23:40;5.90;99.90
75824;DHT22;64457;51.976;9.834;2022-11-18T11:26:13;5.10;99.90
75824;DHT22;64457;51.976;9.834;2022-11-18T11:28:52;5.10;99.90
75824;DHT22;64457;51.976;9.834;2022-11-18T11:31:28;5.20;99.90
75824;DHT22;64457;51.976;9.834;2022-11-18T11:34:04;5.50;99.90
75824;DHT22;64457;51.976;9.834;2022-11-18T11:36:44;5.60;99.90
75824;DHT22;64457;51.976;9.834;2022-11-18T11:39:33;5.10;99.90
75824;DHT22;64457;51.976;9.834;2022-11-18T11:42:14;5.30;99.90
75824;DHT22;64457;51.976;9.834;2022-11-18T11:44:59;5.30;99.90
75824;DHT22;64457;51.976;9.834;2022-11-18T11:47:40;5.30;99.90
75824;DHT22;64457;51.976;9.834;2022-11-18T11:50:21;5.30;99.90
75824;DHT22;64457;51.976;9.834;2022-11-18T11:53:04;5.70;99.90
75824;DHT22;64457;51.976;9.834;2022-11-18T11:55:51;5.10;99.90
75824;DHT22;64457;51.976;9.834;2022-11-18T11:58:37;5.20;99.90
75824;DHT22;64457;51.976;9.834;2022-11-18T12:01:18;5.30;99.90
75824;DHT22;64457;51.976;9.834;2022-11-18T12:03:54;5.30;99.90
75824;DHT22;64457;51.976;9.834;2022-11-18T12:06:24;5.30;99.90
75824;DHT22;64457;51.976;9.834;2022-11-18T12:09:01;5.30;99.90
75824;DHT22;64457;51.976;9.834;2022-11-18T12:11:37;5.40;99.90
75824;DHT22;64457;51.976;9.834;2022-11-18T12:14:14;5.40;99.90
75824;DHT22;64457;51.976;9.834;2022-11-18T12:16:53;5.20;99.90
75824;DHT22;64457;51.976;9.834;2022-11-18T12:19:36;4.90;99.90
75824;DHT22;64457;51.976;9.834;2022-11-18T12:22:05;5.00;99.90
75824;DHT22;64457;51.976;9.834;2022-11-18T12:24:35;5.20;99.90
75824;DHT22;64457;51.976;9.834;2022-11-18T12:27:12;5.30;99.90
75824;DHT22;64457;51.976;9.834;2022-11-18T12:29:52;5.00;99.90
75824;DHT22;64457;51.976;9.834;2022-11-18T12:32:34;5.00;99.90
75824;DHT22;64457;51.976;9.834;2022-11-18T12:35:26;5.20;99.90
75824;DHT22;64457;51.976;9.834;2022-11-18T12:37:59;4.80;99.90
75824;DHT22;64457;51.976;9.834;2022-11-18T12:40:41;4.90;99.90
75824;DHT22;64457;51.976;9.834;2022-11-18T12:46:50;4.70;99.90
75824;DHT22;64457;51.976;9.834;2022-11-18T12:52:47;5.00;99.90
75824;DHT22;64457;51.976;9.834;2022-11-18T12:55:20;5.20;99.90
75824;DHT22;64457;51.976;9.834;2022-11-18T12:57:53;5.20;99.90
75824;DHT22;64457;51.976;9.834;2022-11-18T13:00:29;4.90;99.90
75824;DHT22;64457;51.976;9.834;2022-11-18T13:03:21;4.60;99.90
75824;DHT22;64457;51.976;9.834;2022-11-18T13:06:12;4.60;99.90
75824;DHT22;64457;51.976;9.834;2022-11-18T13:08:49;4.80;99.90
75824;DHT22;64457;51.976;9.834;2022-11-18T13:11:21;4.80;99.90
75824;DHT22;64457;51.976;9.834;2022-11-18T13:14:14;4.80;99.90
75824;DHT22;64457;51.976;9.834;2022-11-18T13:17:00;4.80;99.90
75824;DHT22;64457;51.976;9.834;2022-11-18T13:19:54;4.60;99.90
75824;DHT22;64457;51.976;9.834;2022-11-18T13:22:23;4.70;99.90
75824;DHT22;64457;51.976;9.834;2022-11-18T13:25:22;4.30;99.90
75824;DHT22;64457;51.976;9.834;2022-11-18T13:27:56;4.40;99.90
75824;DHT22;64457;51.976;9.834;2022-11-18T13:30:29;4.50;99.90
75824;DHT22;64457;51.976;9.834;2022-11-18T13:32:58;5.10;99.90
75824;DHT22;64457;51.976;9.834;2022-11-18T13:35:27;5.00;99.90
75824;DHT22;64457;51.976;9.834;2022-11-18T13:37:56;5.00;99.90
75824;DHT22;64457;51.976;9.834;2022-11-18T13:40:26;4.70;99.90
75824;DHT22;64457;51.976;9.834;2022-11-18T13:42:55;4.70;99.90
75824;DHT22;64457;51.976;9.834;2022-11-18T13:45:26;4.70;99.90
75824;DHT22;64457;51.976;9.834;2022-11-18T13:47:58;4.90;99.90
75824;DHT22;64457;51.976;9.834;2022-11-18T13:50:34;4.40;99.90
75824;DHT22;64457;51.976;9.834;2022-11-18T13:53:16;4.40;99.90
75824;DHT22;64457;51.976;9.834;2022-11-18T13:55:50;4.50;99.90
75824;DHT22;64457;51.976;9.834;2022-11-18T13:58:32;4.40;99.90
75824;DHT22;64457;51.976;9.834;2022-11-18T14:01:12;4.60;99.90
75824;DHT22;64457;51.976;9.834;2022-11-18T14:03:48;4.60;99.90
75824;DHT22;64457;51.976;9.834;2022-11-18T14:06:24;4.60;99.90
75824;DHT22;64457;51.976;9.834;2022-11-18T14:09:14;4.70;99.90
75824;DHT22;64457;51.976;9.834;2022-11-18T14:11:44;4.50;99.90
75824;DHT22;64457;51.976;9.834;2022-11-18T14:14:27;4.80;99.90
75824;DHT22;64457;51.976;9.834;2022-11-18T14:17:11;4.70;99.90
75824;DHT22;64457;51.976;9.834;2022-11-18T14:19:42;4.50;99.90
75824;DHT22;64457;51.976;9.834;2022-11-18T14:22:13;4.50;99.90
75824;DHT22;64457;51.976;9.834;2022-11-18T14:24:42;4.20;99.90
75824;DHT22;64457;51.976;9.834;2022-11-18T14:27:33;4.40;99.90
75824;DHT22;64457;51.976;9.834;2022-11-18T14:30:25;4.30;99.90
75824;DHT22;64457;51.976;9.834;2022-11-18T14:33:16;4.20;99.90
75824;DHT22;64457;51.976;9.834;2022-11-18T14:35:48;4.40;99.90
75824;DHT22;64457;51.976;9.834;2022-11-18T14:38:19;4.30;99.90
75824;DHT22;64457;51.976;9.834;2022-11-18T14:40:54;4.50;99.90
75824;DHT22;64457;51.976;9.834;2022-11-18T14:43:23;4.50;99.90
75824;DHT22;64457;51.976;9.834;2022-11-18T14:45:53;4.50;99.90
75824;DHT22;64457;51.976;9.834;2022-11-18T14:48:26;4.60;99.90
75824;DHT22;64457;51.976;9.834;2022-11-18T14:50:54;4.70;99.90
75824;DHT22;64457;51.976;9.834;2022-11-18T14:53:21;4.90;99.90
75824;DHT22;64457;51.976;9.834;2022-11-18T14:55:50;4.90;99.90
75824;DHT22;64457;51.976;9.834;2022-11-18T14:58:19;4.40;99.90
75824;DHT22;64457;51.976;9.834;2022-11-18T15:00:48;4.20;99.90
75824;DHT22;64457;51.976;9.834;2022-11-18T15:03:16;4.40;99.90
75824;DHT22;64457;51.976;9.834;2022-11-18T15:05:45;4.40;99.90
75824;DHT22;64457;51.976;9.834;2022-11-18T15:08:13;4.30;99.90
75824;DHT22;64457;51.976;9.834;2022-11-18T15:10:41;3.70;99.90
75824;DHT22;64457;51.976;9.834;2022-11-18T15:13:09;3.70;99.90
75824;DHT22;64457;51.976;9.834;2022-11-18T15:15:38;3.60;99.90
75824;DHT22;64457;51.976;9.834;2022-11-18T15:18:07;3.80;99.90
75824;DHT22;64457;51.976;9.834;2022-11-18T15:20:36;3.70;99.90
75824;DHT22;64457;51.976;9.834;2022-11-18T15:23:05;3.80;99.90
75824;DHT22;64457;51.976;9.834;2022-11-18T15:25:34;3.70;99.90
75824;DHT22;64457;51.976;9.834;2022-11-18T15:28:02;3.60;99.90
75824;DHT22;64457;51.976;9.834;2022-11-18T15:30:29;3.80;99.90
75824;DHT22;64457;51.976;9.834;2022-11-18T15:32:57;3.70;99.90
75824;DHT22;64457;51.976;9.834;2022-11-18T15:35:25;3.50;99.90
75824;DHT22;64457;51.976;9.834;2022-11-18T15:37:53;3.30;99.90
75824;DHT22;64457;51.976;9.834;2022-11-18T15:40:22;3.50;99.90
75824;DHT22;64457;51.976;9.834;2022-11-18T15:42:50;3.50;99.90
75824;DHT22;64457;51.976;9.834;2022-11-18T15:45:18;3.50;99.90
75824;DHT22;64457;51.976;9.834;2022-11-18T15:47:45;3.50;99.90
75824;DHT22;64457;51.976;9.834;2022-11-18T15:50:14;3.50;99.90
75824;DHT22;64457;51.976;9.834;2022-11-18T15:52:42;3.80;99.90
75824;DHT22;64457;51.976;9.834;2022-11-18T15:55:09;3.90;99.90
75824;DHT22;64457;51.976;9.834;2022-11-18T15:57:38;3.90;99.90
75824;DHT22;64457;51.976;9.834;2022-11-18T16:00:07;4.10;99.90
75824;DHT22;64457;51.976;9.834;2022-11-18T16:02:36;3.80;99.90
75824;DHT22;64457;51.976;9.834;2022-11-18T16:05:04;3.60;99.90
75824;DHT22;64457;51.976;9.834;2022-11-18T16:07:32;3.70;99.90
75824;DHT22;64457;51.976;9.834;2022-11-18T16:10:00;3.60;99.90
75824;DHT22;64457;51.976;9.834;2022-11-18T16:12:46;3.30;99.90
75824;DHT22;64457;51.976;9.834;2022-11-18T16:15:15;3.30;99.90
75824;DHT22;64457;51.976;9.834;2022-11-18T16:18:00;3.10;99.90
75824;DHT22;64457;51.976;9.834;2022-11-18T16:20:29;3.30;99.90
75824;DHT22;64457;51.976;9.834;2022-11-18T16:22:56;3.30;99.90
75824;DHT22;64457;51.976;9.834;2022-11-18T16:25:24;3.20;99.90
75824;DHT22;64457;51.976;9.834;2022-11-18T16:27:54;3.20;99.90
75824;DHT22;64457;51.976;9.834;2022-11-18T16:30:22;3.30;99.90